Time;durP1;ratioP1;P1;durP2;ratioP2;P2;SDS_P1;SDS_P2;PMS_P1;PMS_P2;Temp;Humidity;BMP_temperature;BMP_pressure;BME280_temperature;BME280_humidity;BME280_pressure;Samples;Min_cycle;Max_cycle;Signal;HPM_P1;HPM_P2
2024/03/14 00:01:31;;;;;;;2.30;1.63;;;17.30;93.90;;;;;;5070928;28;20031;-41
2024/03/14 00:03:56;;;;;;;2.60;1.65;;;17.30;93.90;;;;;;5073248;28;20090;-43
2024/03/14 00:06:22;;;;;;;2.05;1.58;;;17.30;93.90;;;;;;5072572;28;20056;-43
2024/03/14 00:08:48;;;;;;;2.30;1.42;;;17.30;93.90;;;;;;5071548;28;20035;-43
2024/03/14 00:11:13;;;;;;;3.83;1.77;;;17.30;93.90;;;;;;5073321;28;20383;-44
2024/03/14 00:13:39;;;;;;;2.40;1.60;;;17.30;94.00;;;;;;5073117;28;20016;-43
2024/03/14 00:16:05;;;;;;;2.40;1.80;;;17.30;94.00;;;;;;5073539;28;20013;-44
2024/03/14 00:18:31;;;;;;;2.50;1.55;;;17.30;94.00;;;;;;5072788;28;20036;-39
2024/03/14 00:20:57;;;;;;;2.40;1.70;;;17.30;94.00;;;;;;5071988;28;20518;-40
2024/03/14 00:23:23;;;;;;;2.42;1.55;;;17.30;94.00;;;;;;5072026;28;20032;-44
2024/03/14 00:25:51;;;;;;;1.92;1.70;;;17.20;94.00;;;;;;5071828;28;20044;-43
2024/03/14 00:28:20;;;;;;;3.50;1.90;;;17.30;94.10;;;;;;5071578;28;20032;-42
2024/03/14 00:30:46;;;;;;;2.70;1.70;;;17.30;94.00;;;;;;5071852;28;20055;-43
2024/03/14 00:33:12;;;;;;;1.90;1.38;;;17.30;94.10;;;;;;5072065;28;20044;-43
2024/03/14 00:35:39;;;;;;;2.90;1.70;;;17.20;94.10;;;;;;5071768;28;20401;-41
2024/03/14 00:38:06;;;;;;;2.20;1.50;;;17.20;94.10;;;;;;5070716;28;20104;-41
2024/03/14 00:40:31;;;;;;;2.35;1.60;;;17.20;94.10;;;;;;5071608;28;20101;-43
2024/03/14 00:42:57;;;;;;;2.17;1.50;;;17.20;94.10;;;;;;5071576;28;20173;-43
2024/03/14 00:45:23;;;;;;;3.42;1.67;;;17.20;94.10;;;;;;5071845;28;20032;-43
2024/03/14 00:47:49;;;;;;;2.03;1.33;;;17.20;94.10;;;;;;5071435;28;20059;-43
2024/03/14 00:50:14;;;;;;;2.50;1.45;;;17.20;94.10;;;;;;5071899;28;20465;-43
2024/03/14 00:52:40;;;;;;;1.80;1.40;;;17.20;94.10;;;;;;5071365;28;20029;-42
2024/03/14 00:55:09;;;;;;;2.28;1.60;;;17.20;94.10;;;;;;5071225;28;20060;-43
2024/03/14 00:57:36;;;;;;;3.45;1.55;;;17.20;94.10;;;;;;5071945;28;20035;-43
2024/03/14 01:00:13;;;;;;;2.72;1.58;;;17.20;94.10;;;;;;5070966;28;20020;-41
2024/03/14 01:02:41;;;;;;;2.35;1.38;;;17.20;94.10;;;;;;5072060;28;20024;-43
2024/03/14 01:05:08;;;;;;;1.63;1.30;;;17.20;94.10;;;;;;5071334;28;20017;-43
2024/03/14 01:07:34;;;;;;;2.47;1.60;;;17.20;94.10;;;;;;5071579;28;20085;-38
2024/03/14 01:10:00;;;;;;;2.10;1.45;;;17.20;94.10;;;;;;5071566;28;20076;-43
2024/03/14 01:12:25;;;;;;;1.88;1.42;;;17.20;94.10;;;;;;5071719;28;20093;-44
2024/03/14 01:14:51;;;;;;;1.55;1.27;;;17.20;94.10;;;;;;5071517;28;20016;-42
2024/03/14 01:17:16;;;;;;;2.10;1.35;;;17.20;94.10;;;;;;5071190;28;20025;-43
2024/03/14 01:19:42;;;;;;;2.33;1.27;;;17.20;94.10;;;;;;5070564;28;20036;-44
2024/03/14 01:22:08;;;;;;;1.58;1.25;;;17.20;94.10;;;;;;5072040;28;20033;-44
2024/03/14 01:24:37;;;;;;;1.83;1.17;;;17.20;94.10;;;;;;5072110;28;20072;-41
2024/03/14 01:27:03;;;;;;;1.45;1.10;;;17.20;94.10;;;;;;5070877;28;20024;-42
2024/03/14 01:29:28;;;;;;;2.05;1.30;;;17.20;94.20;;;;;;5072162;28;20106;-43
2024/03/14 01:31:54;;;;;;;3.17;1.45;;;17.20;94.20;;;;;;5071656;28;20020;-44
2024/03/14 01:34:20;;;;;;;1.48;1.20;;;17.10;94.20;;;;;;5071631;28;20390;-41
2024/03/14 01:36:45;;;;;;;1.92;1.30;;;17.10;94.10;;;;;;5071175;28;20024;-43
2024/03/14 01:39:11;;;;;;;1.33;1.10;;;17.10;94.20;;;;;;5071378;28;20097;-43
2024/03/14 01:41:37;;;;;;;1.52;1.20;;;17.10;94.20;;;;;;5070542;28;20024;-43
2024/03/14 01:44:04;;;;;;;1.85;1.10;;;17.10;94.50;;;;;;5072133;28;20078;-44
2024/03/14 01:46:31;;;;;;;2.53;1.30;;;17.10;94.20;;;;;;5071046;28;20082;-43
2024/03/14 01:48:58;;;;;;;2.42;1.33;;;17.20;94.20;;;;;;5072256;28;20319;-44
2024/03/14 01:51:25;;;;;;;1.60;1.20;;;17.10;94.20;;;;;;5071738;28;20024;-43
2024/03/14 01:53:52;;;;;;;2.55;1.40;;;17.10;94.20;;;;;;5072335;28;20104;-43
2024/03/14 01:56:21;;;;;;;1.52;1.17;;;17.10;94.20;;;;;;5071561;28;20505;-44
2024/03/14 01:58:49;;;;;;;2.10;1.55;;;17.10;94.20;;;;;;5071836;28;20029;-41
2024/03/14 02:01:15;;;;;;;1.90;1.40;;;17.10;94.50;;;;;;5070364;28;20067;-44
2024/03/14 02:03:43;;;;;;;1.52;1.30;;;17.10;94.20;;;;;;5071825;28;20539;-41
2024/03/14 02:06:27;;;;;;;3.63;1.20;;;17.10;94.20;;;;;;5074447;28;20467;-41
2024/03/14 02:08:53;;;;;;;2.55;1.42;;;17.10;94.20;;;;;;5075022;28;20032;-43
2024/03/14 02:11:18;;;;;;;1.38;1.20;;;17.10;94.20;;;;;;5074657;28;20032;-41
2024/03/14 02:13:45;;;;;;;1.48;1.30;;;17.10;94.60;;;;;;5075667;28;20024;-44
2024/03/14 02:16:10;;;;;;;2.65;1.40;;;17.10;94.20;;;;;;5075284;28;20013;-43
2024/03/14 02:18:36;;;;;;;2.47;1.50;;;17.10;94.20;;;;;;5073966;28;20028;-43
2024/03/14 02:21:01;;;;;;;2.03;1.20;;;17.10;94.20;;;;;;5074915;28;20041;-44
2024/03/14 02:23:27;;;;;;;2.45;1.30;;;17.10;94.20;;;;;;5075042;28;20107;-39
2024/03/14 02:25:54;;;;;;;1.38;1.20;;;17.10;94.20;;;;;;5074954;28;20036;-43
2024/03/14 02:28:21;;;;;;;1.65;1.20;;;17.10;94.20;;;;;;5074099;28;20028;-44
2024/03/14 02:30:47;;;;;;;2.38;1.63;;;17.10;94.20;;;;;;5075651;28;20023;-40
2024/03/14 02:33:13;;;;;;;1.50;1.27;;;17.10;94.20;;;;;;5075878;28;20021;-43
2024/03/14 02:35:39;;;;;;;2.00;1.30;;;17.10;94.20;;;;;;5075184;28;20031;-43
2024/03/14 02:38:07;;;;;;;1.85;1.33;;;17.10;94.20;;;;;;5073869;28;20033;-44
2024/03/14 02:40:33;;;;;;;2.45;1.55;;;17.10;94.20;;;;;;5072848;28;20058;-42
2024/03/14 02:42:59;;;;;;;1.80;1.10;;;17.10;94.20;;;;;;5074402;28;20025;-43
2024/03/14 02:45:24;;;;;;;2.03;1.27;;;17.00;94.10;;;;;;5074035;28;20047;-43
2024/03/14 02:47:50;;;;;;;1.67;1.33;;;17.10;94.20;;;;;;5073249;28;20070;-43
2024/03/14 02:50:15;;;;;;;1.90;1.30;;;17.10;94.20;;;;;;5073430;28;20039;-44
2024/03/14 02:52:42;;;;;;;1.80;1.30;;;17.00;94.10;;;;;;5073514;28;20020;-43
2024/03/14 02:55:08;;;;;;;2.13;1.23;;;17.00;94.20;;;;;;5075121;28;20024;-43
2024/03/14 02:57:36;;;;;;;1.48;1.10;;;17.00;94.10;;;;;;5074173;28;20021;-40
2024/03/14 03:00:05;;;;;;;1.63;1.38;;;17.00;94.10;;;;;;5074139;28;20020;-43
2024/03/14 03:02:31;;;;;;;2.00;1.40;;;17.00;94.10;;;;;;5074360;28;20081;-42
2024/03/14 03:04:57;;;;;;;1.40;1.13;;;17.00;94.10;;;;;;5074110;28;20029;-43
2024/03/14 03:07:23;;;;;;;1.50;1.30;;;17.00;94.20;;;;;;5073495;28;20016;-44
2024/03/14 03:09:49;;;;;;;1.63;1.20;;;17.00;94.20;;;;;;5073669;28;20025;-44
2024/03/14 03:12:14;;;;;;;2.17;1.40;;;17.00;94.10;;;;;;5073587;28;20090;-44
2024/03/14 03:14:40;;;;;;;1.63;1.13;;;17.00;94.20;;;;;;5073643;28;20036;-43
2024/03/14 03:17:06;;;;;;;1.80;1.40;;;17.00;94.10;;;;;;5073980;28;20047;-43
2024/03/14 03:19:31;;;;;;;1.80;1.20;;;17.00;94.10;;;;;;5073334;28;20040;-41
2024/03/14 03:21:58;;;;;;;1.60;1.30;;;17.00;94.10;;;;;;5073972;28;20025;-43
2024/03/14 03:24:24;;;;;;;2.25;1.35;;;17.00;94.10;;;;;;5074208;28;20051;-43
2024/03/14 03:26:50;;;;;;;1.60;1.23;;;17.00;94.10;;;;;;5072450;28;20029;-43
2024/03/14 03:29:16;;;;;;;2.22;1.50;;;17.00;94.10;;;;;;5073342;28;20486;-43
2024/03/14 03:31:42;;;;;;;2.13;1.30;;;17.00;94.10;;;;;;5073674;28;20530;-43
2024/03/14 03:34:08;;;;;;;2.67;1.60;;;17.00;94.10;;;;;;5071871;28;20116;-43
2024/03/14 03:36:33;;;;;;;2.47;1.58;;;17.00;94.10;;;;;;5073466;28;20475;-41
2024/03/14 03:39:00;;;;;;;2.63;1.20;;;17.00;94.10;;;;;;5072909;28;20099;-41
2024/03/14 03:41:29;;;;;;;1.80;1.10;;;17.00;94.10;;;;;;5073804;28;20540;-44
2024/03/14 03:43:55;;;;;;;1.85;1.25;;;17.00;94.10;;;;;;5073199;28;20059;-43
2024/03/14 03:46:21;;;;;;;2.00;1.40;;;17.00;94.10;;;;;;5074130;28;20029;-40
2024/03/14 03:48:47;;;;;;;3.05;1.33;;;17.00;94.10;;;;;;5072715;28;20169;-40
2024/03/14 03:51:13;;;;;;;2.42;1.17;;;17.00;94.10;;;;;;5072367;28;20021;-42
2024/03/14 03:53:38;;;;;;;1.52;1.10;;;17.00;94.10;;;;;;5072597;28;20103;-44
2024/03/14 03:56:04;;;;;;;1.88;1.27;;;17.00;94.20;;;;;;5073199;28;20081;-43
2024/03/14 03:58:32;;;;;;;2.03;1.30;;;17.00;94.20;;;;;;5072066;28;20020;-43
2024/03/14 04:01:06;;;;;;;1.65;1.27;;;17.00;94.20;;;;;;5072364;28;20101;-43
2024/03/14 04:03:35;;;;;;;;;;;17.00;94.10;;;;;;5073099;28;20423;-40
2024/03/14 04:06:00;;;;;;;1.52;1.20;;;16.90;94.10;;;;;;5073442;28;20363;-44
2024/03/14 04:08:26;;;;;;;1.80;1.30;;;16.90;94.20;;;;;;5073073;28;20031;-44
2024/03/14 04:10:53;;;;;;;1.25;1.10;;;17.00;94.20;;;;;;5071750;28;20398;-43
2024/03/14 04:13:19;;;;;;;1.08;0.93;;;16.90;94.20;;;;;;5072545;28;20032;-42
2024/03/14 04:15:46;;;;;;;1.45;1.20;;;16.90;94.20;;;;;;5074486;28;20023;-40
2024/03/14 04:18:13;;;;;;;1.65;1.30;;;16.90;94.20;;;;;;5072581;28;20033;-44
2024/03/14 04:20:39;;;;;;;1.98;1.33;;;16.90;94.60;;;;;;5073502;28;20101;-40
2024/03/14 04:23:05;;;;;;;2.13;1.40;;;17.00;94.20;;;;;;5072102;28;20028;-44
2024/03/14 04:25:32;;;;;;;1.60;1.20;;;16.90;94.20;;;;;;5072420;28;20085;-43
2024/03/14 04:27:57;;;;;;;2.40;1.35;;;17.00;94.20;;;;;;5073031;28;20430;-43
2024/03/14 04:30:23;;;;;;;1.60;1.10;;;17.00;94.20;;;;;;5072018;28;20055;-41
2024/03/14 04:32:51;;;;;;;2.95;1.40;;;17.00;94.20;;;;;;5071826;28;20021;-44
2024/03/14 04:35:22;;;;;;;1.73;1.40;;;16.90;94.20;;;;;;5073166;28;20437;-42
2024/03/14 04:37:49;;;;;;;1.60;1.17;;;17.00;94.20;;;;;;5072485;28;20076;-44
2024/03/14 04:40:19;;;;;;;1.60;1.10;;;17.00;94.20;;;;;;5074078;28;20031;-43
2024/03/14 04:42:46;;;;;;;1.70;1.30;;;17.00;94.20;;;;;;5072337;28;20020;-41
2024/03/14 04:45:17;;;;;;;1.33;1.00;;;16.90;94.20;;;;;;5071499;28;20025;-44
2024/03/14 04:47:44;;;;;;;1.33;1.20;;;17.00;94.20;;;;;;5071376;28;20549;-44
2024/03/14 04:50:10;;;;;;;1.40;1.30;;;17.00;94.20;;;;;;5073207;28;20012;-43
2024/03/14 04:52:36;;;;;;;2.85;1.20;;;16.90;94.10;;;;;;5072634;28;20103;-43
2024/03/14 04:55:05;;;;;;;1.40;1.17;;;17.00;94.10;;;;;;5071904;28;20020;-43
2024/03/14 04:57:33;;;;;;;1.45;1.05;;;17.00;94.10;;;;;;5073012;28;20028;-43
2024/03/14 04:59:59;;;;;;;1.45;1.13;;;17.00;94.20;;;;;;5072447;28;20028;-43
2024/03/14 05:02:25;;;;;;;1.20;1.00;;;16.90;94.10;;;;;;5071465;28;20024;-43
2024/03/14 05:04:50;;;;;;;1.98;1.30;;;16.90;94.20;;;;;;5071815;28;20078;-44
2024/03/14 05:07:16;;;;;;;1.60;1.20;;;16.90;94.20;;;;;;5071465;28;20063;-43
2024/03/14 05:09:43;;;;;;;1.35;1.23;;;16.90;94.10;;;;;;5071398;28;20029;-43
2024/03/14 05:12:09;;;;;;;1.40;1.27;;;16.90;94.10;;;;;;5072434;28;20032;-43
2024/03/14 05:14:36;;;;;;;1.65;1.15;;;16.90;94.10;;;;;;5071469;28;20021;-42
2024/03/14 05:17:02;;;;;;;1.10;1.00;;;16.90;94.10;;;;;;5071295;28;20040;-43
2024/03/14 05:19:28;;;;;;;1.80;1.30;;;16.90;94.10;;;;;;5070693;28;20043;-43
2024/03/14 05:21:54;;;;;;;2.00;1.63;;;16.90;94.10;;;;;;5071789;28;20115;-44
2024/03/14 05:24:19;;;;;;;2.00;1.45;;;16.90;94.20;;;;;;5070936;28;20024;-41
2024/03/14 05:26:45;;;;;;;1.75;1.40;;;16.90;94.20;;;;;;5070917;28;20032;-43
2024/03/14 05:29:10;;;;;;;1.40;1.30;;;16.90;94.20;;;;;;5070453;28;20482;-44
2024/03/14 05:31:36;;;;;;;1.92;1.42;;;16.90;94.10;;;;;;5070708;28;20025;-43
2024/03/14 05:34:02;;;;;;;2.22;1.35;;;16.90;94.10;;;;;;5072284;28;20394;-43
2024/03/14 05:36:27;;;;;;;2.10;1.33;;;16.90;94.10;;;;;;5070783;28;20497;-40
2024/03/14 05:38:53;;;;;;;1.77;1.50;;;16.90;94.20;;;;;;5071983;28;20421;-44
2024/03/14 05:41:19;;;;;;;2.53;1.42;;;16.90;94.10;;;;;;5074721;28;20032;-42
2024/03/14 05:43:45;;;;;;;1.75;1.48;;;16.90;94.10;;;;;;5075053;28;20469;-43
2024/03/14 05:46:13;;;;;;;1.85;1.48;;;16.90;94.10;;;;;;5075809;28;20085;-43
2024/03/14 05:48:39;;;;;;;2.30;1.70;;;16.90;94.10;;;;;;5075368;28;20047;-44
2024/03/14 05:51:08;;;;;;;1.95;1.70;;;16.90;94.10;;;;;;5074437;28;20482;-41
2024/03/14 05:53:33;;;;;;;1.85;1.60;;;17.00;94.10;;;;;;5076541;28;20024;-43
2024/03/14 05:56:02;;;;;;;1.40;1.30;;;16.90;94.10;;;;;;5075520;28;20107;-40
2024/03/14 05:58:28;;;;;;;2.67;1.70;;;16.90;94.00;;;;;;5075286;28;20028;-43
2024/03/14 06:00:57;;;;;;;1.98;1.60;;;16.90;94.10;;;;;;5075316;28;20111;-43
2024/03/14 06:03:23;;;;;;;1.67;1.48;;;16.90;94.10;;;;;;5075539;28;20028;-43
2024/03/14 06:05:52;;;;;;;1.70;1.58;;;16.90;94.10;;;;;;5074892;28;20038;-41
2024/03/14 06:08:19;;;;;;;1.75;1.60;;;16.90;94.10;;;;;;5075401;28;20024;-44
2024/03/14 06:10:45;;;;;;;1.80;1.50;;;16.90;94.10;;;;;;5074641;28;20070;-44
2024/03/14 06:13:11;;;;;;;1.95;1.73;;;16.90;94.10;;;;;;5074567;28;20021;-43
2024/03/14 06:15:37;;;;;;;2.35;1.95;;;16.90;94.10;;;;;;5074832;28;20043;-43
2024/03/14 06:18:05;;;;;;;2.05;1.67;;;16.90;94.10;;;;;;5073972;28;20082;-43
2024/03/14 06:20:31;;;;;;;1.85;1.63;;;16.90;94.20;;;;;;5073765;28;20490;-43
2024/03/14 06:22:58;;;;;;;1.67;1.48;;;16.90;94.20;;;;;;5074276;28;20032;-43
2024/03/14 06:25:24;;;;;;;1.73;1.50;;;16.90;94.20;;;;;;5074887;28;20050;-43
2024/03/14 06:27:50;;;;;;;2.53;1.77;;;16.90;94.20;;;;;;5074674;28;20448;-43
2024/03/14 06:30:15;;;;;;;2.17;1.63;;;16.90;94.20;;;;;;5074927;28;20383;-43
2024/03/14 06:32:41;;;;;;;1.85;1.75;;;16.90;94.20;;;;;;5075120;28;20042;-39
2024/03/14 06:35:08;;;;;;;1.42;1.33;;;16.90;94.20;;;;;;5074232;28;20021;-43
2024/03/14 06:37:35;;;;;;;1.65;1.50;;;16.90;94.20;;;;;;5073696;28;20019;-44
2024/03/14 06:40:05;;;;;;;2.25;1.92;;;16.90;94.20;;;;;;5074107;28;20031;-44
2024/03/14 06:42:32;;;;;;;1.77;1.60;;;16.90;94.20;;;;;;5074136;28;20017;-43
2024/03/14 06:45:02;;;;;;;1.70;1.60;;;16.90;94.20;;;;;;5074232;28;20055;-43
2024/03/14 06:47:29;;;;;;;2.40;1.60;;;16.90;94.20;;;;;;5073406;28;20564;-43
2024/03/14 06:49:55;;;;;;;1.60;1.30;;;16.90;94.20;;;;;;5074367;28;20081;-44
2024/03/14 06:52:21;;;;;;;2.30;1.98;;;16.90;94.20;;;;;;5074319;28;20028;-44
2024/03/14 06:54:48;;;;;;;1.88;1.67;;;16.90;94.20;;;;;;5074133;28;20021;-40
2024/03/14 06:57:14;;;;;;;1.70;1.60;;;16.90;94.20;;;;;;5074573;28;20028;-43
2024/03/14 06:59:40;;;;;;;2.08;1.80;;;16.90;94.20;;;;;;5074420;28;20051;-44
2024/03/14 07:02:07;;;;;;;2.03;1.73;;;16.90;94.20;;;;;;5074613;28;20025;-41
2024/03/14 07:04:34;;;;;;;1.95;1.73;;;16.90;94.20;;;;;;5073225;28;20052;-44
2024/03/14 07:07:01;;;;;;;1.88;1.55;;;16.90;94.50;;;;;;5073833;28;20036;-44
2024/03/14 07:09:28;;;;;;;1.90;1.75;;;16.90;94.20;;;;;;5073461;28;20031;-44
2024/03/14 07:11:54;;;;;;;2.08;1.77;;;16.90;94.20;;;;;;5074220;28;20046;-44
2024/03/14 07:14:22;;;;;;;2.05;1.70;;;16.90;94.10;;;;;;5074365;28;20031;-44
2024/03/14 07:16:49;;;;;;;2.17;1.75;;;16.90;94.20;;;;;;5073764;28;20078;-43
2024/03/14 07:19:21;;;;;;;2.05;1.73;;;16.90;94.20;;;;;;5073689;28;20074;-44
2024/03/14 07:21:49;;;;;;;1.95;1.75;;;16.90;94.20;;;;;;5073243;28;20020;-43
2024/03/14 07:24:20;;;;;;;2.03;1.80;;;16.90;94.20;;;;;;5073786;28;20025;-43
2024/03/14 07:26:46;;;;;;;2.97;2.03;;;16.90;94.20;;;;;;5073994;28;20061;-44
2024/03/14 07:29:12;;;;;;;3.03;2.15;;;16.90;94.20;;;;;;5073552;28;20074;-44
2024/03/14 07:31:38;;;;;;;3.40;2.00;;;16.90;94.20;;;;;;5074452;28;20100;-43
2024/03/14 07:34:06;;;;;;;2.33;1.85;;;16.90;94.20;;;;;;5073161;28;20383;-43
2024/03/14 07:36:36;;;;;;;2.47;1.92;;;16.90;94.10;;;;;;5073813;28;20016;-41
2024/03/14 07:39:02;;;;;;;2.65;1.92;;;16.90;94.20;;;;;;5073856;28;20033;-43
2024/03/14 07:41:27;;;;;;;2.83;2.20;;;17.00;94.20;;;;;;5073040;28;20425;-39
2024/03/14 07:43:53;;;;;;;2.35;2.00;;;17.00;94.10;;;;;;5072852;28;20032;-41
2024/03/14 07:46:19;;;;;;;2.13;1.92;;;17.00;94.10;;;;;;5072476;28;20064;-44
2024/03/14 07:48:49;;;;;;;2.50;1.80;;;17.00;94.10;;;;;;5072375;28;20025;-43
2024/03/14 07:51:16;;;;;;;2.38;1.60;;;17.00;94.10;;;;;;5074030;28;20042;-44
2024/03/14 07:53:42;;;;;;;2.22;1.88;;;17.00;94.10;;;;;;5072879;28;20023;-42
2024/03/14 07:56:09;;;;;;;2.38;2.05;;;17.00;94.10;;;;;;5073378;28;20027;-44
2024/03/14 07:58:39;;;;;;;4.13;1.75;;;17.00;94.00;;;;;;5072103;28;20028;-44
2024/03/14 08:01:09;;;;;;;3.05;2.00;;;17.00;94.00;;;;;;5071549;28;20101;-44
2024/03/14 08:03:42;;;;;;;2.08;1.50;;;17.00;94.00;;;;;;5072156;28;20035;-40
2024/03/14 08:06:10;;;;;;;2.17;1.65;;;17.00;94.00;;;;;;5073080;28;20154;-44
2024/03/14 08:08:36;;;;;;;2.85;1.90;;;17.10;94.00;;;;;;5073208;28;20493;-44
2024/03/14 08:11:04;;;;;;;2.33;1.85;;;17.10;94.10;;;;;;5072935;28;20033;-44
2024/03/14 08:13:33;;;;;;;2.03;1.83;;;17.10;94.00;;;;;;5072657;28;20028;-43
2024/03/14 08:16:08;;;;;;;3.95;1.88;;;17.10;94.00;;;;;;5073796;28;20402;-42
2024/03/14 08:18:38;;;;;;;2.33;1.45;;;17.10;94.00;;;;;;5073437;28;20036;-44
2024/03/14 08:21:05;;;;;;;2.05;1.73;;;17.10;94.00;;;;;;5073285;28;20062;-43
2024/03/14 08:23:33;;;;;;;2.05;1.75;;;17.20;94.00;;;;;;5072749;28;20032;-43
2024/03/14 08:25:59;;;;;;;2.10;1.60;;;17.10;94.00;;;;;;5072755;28;20032;-44
2024/03/14 08:28:25;;;;;;;2.17;1.65;;;17.20;94.00;;;;;;5071675;28;20039;-44
2024/03/14 08:30:51;;;;;;;2.08;1.30;;;17.20;93.90;;;;;;5072038;28;20050;-44
2024/03/14 08:33:18;;;;;;;2.15;1.42;;;17.20;93.90;;;;;;5072124;28;20023;-44
2024/03/14 08:35:44;;;;;;;2.13;1.60;;;17.20;93.90;;;;;;5071147;28;20107;-40
2024/03/14 08:38:13;;;;;;;1.88;1.30;;;17.20;93.90;;;;;;5073144;28;20553;-44
2024/03/14 08:40:39;;;;;;;1.50;1.30;;;17.30;93.90;;;;;;5073189;28;20098;-44
2024/03/14 08:43:05;;;;;;;2.10;1.30;;;17.30;93.80;;;;;;5071966;28;20040;-42
2024/03/14 08:45:35;;;;;;;1.35;1.23;;;17.30;93.80;;;;;;5072052;28;20024;-44
2024/03/14 08:48:01;;;;;;;2.65;1.20;;;17.40;93.80;;;;;;5073573;28;20017;-44
2024/03/14 08:50:26;;;;;;;1.83;1.20;;;17.40;93.80;;;;;;5073443;28;20016;-44
2024/03/14 08:52:55;;;;;;;1.63;1.30;;;17.50;93.80;;;;;;5073630;28;20031;-42
2024/03/14 08:55:23;;;;;;;2.35;1.38;;;17.50;93.70;;;;;;5071580;28;20028;-44
2024/03/14 08:57:51;;;;;;;1.38;1.25;;;17.60;93.70;;;;;;5072248;28;20104;-44
2024/03/14 09:00:17;;;;;;;1.27;1.10;;;17.60;93.60;;;;;;5071280;28;20367;-43
2024/03/14 09:02:43;;;;;;;1.23;1.00;;;17.70;93.60;;;;;;5072065;28;20104;-43
2024/03/14 09:05:14;;;;;;;1.15;1.02;;;17.70;93.50;;;;;;5071284;28;20032;-43
2024/03/14 09:07:43;;;;;;;1.40;1.20;;;17.80;93.40;;;;;;5071584;28;20029;-43
2024/03/14 09:10:15;;;;;;;1.77;1.27;;;17.90;93.30;;;;;;5072410;28;20039;-41
2024/03/14 09:12:43;;;;;;;1.80;1.02;;;17.90;93.20;;;;;;5073133;28;20032;-44
2024/03/14 09:15:09;;;;;;;1.58;1.08;;;18.00;93.20;;;;;;5071056;28;20024;-43
2024/03/14 09:17:36;;;;;;;1.88;1.13;;;18.00;93.10;;;;;;5070849;28;20021;-44
2024/03/14 09:20:05;;;;;;;1.25;1.10;;;18.10;93.00;;;;;;5070815;28;20038;-44
2024/03/14 09:22:31;;;;;;;1.48;1.05;;;18.10;92.90;;;;;;5071005;28;20031;-42
2024/03/14 09:24:57;;;;;;;1.30;1.10;;;18.20;92.90;;;;;;5071217;28;20024;-43
2024/03/14 09:27:23;;;;;;;1.48;0.98;;;18.30;92.90;;;;;;5070833;28;20427;-40
2024/03/14 09:29:54;;;;;;;1.27;1.17;;;18.30;92.80;;;;;;5073389;28;20116;-43
2024/03/14 09:32:20;;;;;;;1.50;1.10;;;18.40;92.70;;;;;;5071710;28;20033;-43
2024/03/14 09:34:46;;;;;;;1.00;0.90;;;18.50;92.70;;;;;;5071159;28;20066;-43
2024/03/14 09:37:12;;;;;;;2.80;1.00;;;18.50;92.60;;;;;;5070593;28;20032;-44
2024/03/14 09:39:38;;;;;;;1.33;0.80;;;18.60;92.60;;;;;;5070661;28;20028;-44
2024/03/14 09:42:04;;;;;;;1.30;1.02;;;18.60;92.50;;;;;;5071006;28;20073;-43
2024/03/14 09:44:29;;;;;;;1.05;0.82;;;18.70;92.40;;;;;;5071038;28;20040;-43
2024/03/14 09:47:14;;;;;;;1.30;0.90;;;18.70;92.30;;;;;;5070878;28;20032;-43
2024/03/14 09:49:42;;;;;;;1.65;1.00;;;18.80;92.20;;;;;;5070644;28;20518;-44
2024/03/14 09:52:08;;;;;;;1.42;0.95;;;18.90;92.20;;;;;;5071816;28;20059;-43
2024/03/14 09:54:34;;;;;;;1.45;1.00;;;18.90;92.10;;;;;;5070750;28;20479;-44
2024/03/14 09:57:00;;;;;;;1.05;0.80;;;19.00;92.00;;;;;;5070419;28;20450;-44
2024/03/14 09:59:27;;;;;;;1.30;0.90;;;19.10;92.00;;;;;;5070504;28;20033;-41
2024/03/14 10:01:53;;;;;;;1.10;1.00;;;19.10;91.90;;;;;;5070818;28;20142;-43
2024/03/14 10:04:21;;;;;;;0.90;0.60;;;19.20;91.80;;;;;;5071067;28;20036;-44
2024/03/14 10:06:48;;;;;;;1.45;1.00;;;19.20;91.70;;;;;;5070624;28;20100;-44
2024/03/14 10:09:15;;;;;;;0.90;0.68;;;19.30;91.70;;;;;;5070246;28;20048;-43
2024/03/14 10:11:44;;;;;;;1.70;1.10;;;19.30;91.60;;;;;;5070346;28;20082;-43
2024/03/14 10:14:32;;;;;;;0.85;0.80;;;19.40;91.60;;;;;;5072451;28;20110;-44
2024/03/14 10:16:58;;;;;;;1.30;1.13;;;19.50;91.50;;;;;;5072222;28;20040;-43
2024/03/14 10:19:35;;;;;;;1.40;1.00;;;19.60;91.40;;;;;;5072984;28;20040;-44
2024/03/14 10:22:02;;;;;;;0.85;0.80;;;19.60;91.40;;;;;;5071319;28;20101;-44
2024/03/14 10:24:30;;;;;;;1.15;0.93;;;19.70;91.30;;;;;;5073054;28;20040;-43
2024/03/14 10:26:56;;;;;;;1.15;0.73;;;19.80;91.20;;;;;;5075330;28;20058;-43
2024/03/14 10:29:25;;;;;;;2.10;0.90;;;19.80;91.10;;;;;;5074118;28;20032;-43
2024/03/14 10:31:52;;;;;;;0.70;0.70;;;19.90;91.00;;;;;;5076137;28;20021;-43
2024/03/14 10:34:19;;;;;;;1.92;1.00;;;20.00;91.00;;;;;;5074858;28;20024;-43
2024/03/14 10:36:51;;;;;;;1.45;0.90;;;20.10;90.90;;;;;;5073369;28;20033;-44
2024/03/14 10:39:18;;;;;;;1.08;0.80;;;20.20;90.80;;;;;;5073653;28;20483;-43
2024/03/14 10:41:47;;;;;;;0.73;0.60;;;20.20;90.70;;;;;;5071668;28;20463;-44
2024/03/14 10:44:21;;;;;;;2.00;0.80;;;20.30;90.70;;;;;;5074139;28;20028;-44
2024/03/14 10:46:50;;;;;;;0.83;0.70;;;20.30;90.60;;;;;;5073927;28;20075;-43
2024/03/14 10:49:22;;;;;;;1.33;0.90;;;20.40;90.50;;;;;;5073303;28;20557;-44
2024/03/14 10:51:51;;;;;;;0.70;0.63;;;20.50;90.50;;;;;;5076164;28;20032;-44
2024/03/14 10:54:23;;;;;;;0.90;0.55;;;20.50;90.40;;;;;;5073617;28;20016;-41
2024/03/14 10:56:49;;;;;;;1.42;0.68;;;20.60;90.40;;;;;;5073481;28;20115;-43
2024/03/14 10:59:16;;;;;;;0.70;0.60;;;20.70;90.30;;;;;;5073188;28;20028;-44
2024/03/14 11:01:50;;;;;;;1.48;0.77;;;20.80;90.30;;;;;;5073183;28;20532;-44
2024/03/14 11:04:17;;;;;;;0.60;0.43;;;20.80;90.20;;;;;;5073329;28;20032;-43
2024/03/14 11:06:47;;;;;;;0.98;0.65;;;20.90;90.20;;;;;;5073974;28;20106;-44
2024/03/14 11:09:15;;;;;;;0.95;0.50;;;21.00;90.30;;;;;;5073759;28;20025;-44
2024/03/14 11:11:48;;;;;;;1.20;0.70;;;21.00;90.40;;;;;;5073126;28;20071;-43
2024/03/14 11:14:15;;;;;;;1.00;0.70;;;21.00;90.50;;;;;;5073191;28;20032;-43
2024/03/14 11:16:48;;;;;;;0.50;0.40;;;21.00;90.50;;;;;;5073493;28;20108;-44
2024/03/14 11:19:20;;;;;;;0.95;0.60;;;21.10;90.70;;;;;;5073524;28;20103;-44
2024/03/14 11:21:48;;;;;;;0.65;0.50;;;21.30;90.30;;;;;;5073821;28;20020;-43
2024/03/14 11:24:17;;;;;;;0.73;0.50;;;21.50;90.10;;;;;;5073352;28;20033;-44
2024/03/14 11:26:48;;;;;;;0.77;0.60;;;21.70;89.70;;;;;;5072822;28;20518;-44
2024/03/14 11:29:20;;;;;;;0.75;0.50;;;22.00;88.80;;;;;;5072568;28;20047;-45
2024/03/14 11:32:21;;;;;;;1.25;0.60;;;22.20;88.50;;;;;;5073478;28;20493;-43
2024/03/14 11:34:47;;;;;;;0.50;0.30;;;22.20;88.20;;;;;;5073582;28;20012;-44
2024/03/14 11:37:19;;;;;;;0.40;0.40;;;22.10;88.10;;;;;;5071281;28;20025;-43
2024/03/14 11:39:48;;;;;;;0.30;0.30;;;22.10;88.00;;;;;;5072082;28;20024;-44
2024/03/14 11:42:15;;;;;;;0.55;0.40;;;22.10;87.80;;;;;;5072887;28;20033;-43
2024/03/14 11:44:45;;;;;;;1.13;0.65;;;22.10;87.80;;;;;;5074880;28;20020;-43
2024/03/14 11:47:14;;;;;;;1.00;0.70;;;22.20;87.30;;;;;;5072602;28;20096;-45
2024/03/14 11:49:43;;;;;;;1.17;0.50;;;22.40;86.80;;;;;;5072712;28;20497;-44
2024/03/14 11:52:15;;;;;;;1.92;0.70;;;22.50;86.20;;;;;;5072505;28;20028;-43
2024/03/14 11:54:41;;;;;;;1.40;0.60;;;22.60;86.00;;;;;;5072565;28;20086;-43
2024/03/14 11:57:08;;;;;;;1.35;0.63;;;22.60;86.10;;;;;;5072377;28;20463;-43
2024/03/14 11:59:38;;;;;;;3.17;0.70;;;22.60;86.50;;;;;;5072293;28;20046;-43
2024/03/14 12:02:04;;;;;;;0.50;0.40;;;22.50;86.50;;;;;;5073020;28;20024;-45
2024/03/14 12:04:30;;;;;;;0.82;0.40;;;22.50;86.60;;;;;;5073069;28;20028;-43
2024/03/14 12:06:55;;;;;;;0.52;0.50;;;22.50;86.70;;;;;;5072368;28;20445;-43
2024/03/14 12:09:22;;;;;;;0.90;0.50;;;22.50;86.60;;;;;;5071775;28;20021;-44
2024/03/14 12:11:51;;;;;;;1.88;0.60;;;22.60;86.60;;;;;;5072527;28;20470;-45
2024/03/14 12:14:18;;;;;;;0.60;0.30;;;22.60;86.40;;;;;;5074055;28;20395;-44
2024/03/14 12:16:47;;;;;;;0.40;0.35;;;22.60;86.20;;;;;;5072131;28;20422;-43
2024/03/14 12:19:16;;;;;;;1.00;0.50;;;22.70;86.00;;;;;;5073465;28;20024;-43
2024/03/14 12:21:42;;;;;;;0.70;0.35;;;22.70;85.60;;;;;;5072447;28;20024;-45
2024/03/14 12:24:13;;;;;;;0.40;0.40;;;22.80;85.40;;;;;;5072311;28;20111;-43
2024/03/14 12:26:39;;;;;;;0.30;0.30;;;22.80;84.90;;;;;;5072761;28;20432;-44
2024/03/14 12:29:06;;;;;;;0.68;0.40;;;23.00;84.60;;;;;;5072355;28;20089;-44
2024/03/14 12:31:32;;;;;;;0.70;0.40;;;23.20;84.10;;;;;;5071768;28;20028;-44
2024/03/14 12:33:58;;;;;;;0.43;0.30;;;23.30;83.90;;;;;;5072076;28;20025;-45
2024/03/14 12:36:25;;;;;;;0.73;0.40;;;23.30;83.80;;;;;;5072424;28;20047;-45
2024/03/14 12:38:51;;;;;;;0.57;0.40;;;23.40;83.80;;;;;;5071790;28;20032;-45
2024/03/14 12:41:18;;;;;;;0.35;0.30;;;23.30;83.70;;;;;;5071215;28;20029;-44
2024/03/14 12:43:48;;;;;;;0.40;0.20;;;23.20;83.90;;;;;;5072547;28;20028;-43
2024/03/14 12:46:15;;;;;;;0.75;0.40;;;23.20;84.20;;;;;;5071896;28;20075;-43
2024/03/14 12:48:41;;;;;;;0.52;0.30;;;23.20;84.30;;;;;;5071310;28;20031;-45